sensor_id;sensor_type;location;lat;lon;timestamp;pressure;altitude;pressure_sealevel;temperature;humidity
64211;BME280;50528;48.514;14.394;2023-01-20T00:00:20;92995.23;;;-4.09;72.76
64211;BME280;50528;48.514;14.394;2023-01-20T00:01:14;92994.77;;;-4.12;72.82
64211;BME280;50528;48.514;14.394;2023-01-20T00:01:48;92993.63;;;-4.12;72.71
64211;BME280;50528;48.514;14.394;2023-01-20T00:02:21;92993.55;;;-4.12;72.67
64211;BME280;50528;48.514;14.394;2023-01-20T00:02:55;92997.77;;;-4.11;72.70
64211;BME280;50528;48.514;14.394;2023-01-20T00:03:29;92988.64;;;-4.13;72.65
64211;BME280;50528;48.514;14.394;2023-01-20T00:04:05;92996.59;;;-4.11;72.61
64211;BME280;50528;48.514;14.394;2023-01-20T00:04:39;92993.74;;;-4.12;72.55
64211;BME280;50528;48.514;14.394;2023-01-20T00:05:12;92993.52;;;-4.11;72.56
64211;BME280;50528;48.514;14.394;2023-01-20T00:05:50;92992.10;;;-4.10;72.61
64211;BME280;50528;48.514;14.394;2023-01-20T00:06:25;92996.24;;;-4.11;72.34
64211;BME280;50528;48.514;14.394;2023-01-20T00:07:02;92995.24;;;-4.13;72.38
64211;BME280;50528;48.514;14.394;2023-01-20T00:07:35;92993.88;;;-4.14;72.32
64211;BME280;50528;48.514;14.394;2023-01-20T00:08:09;92990.33;;;-4.15;72.32
64211;BME280;50528;48.514;14.394;2023-01-20T00:08:43;92998.79;;;-4.14;72.31
64211;BME280;50528;48.514;14.394;2023-01-20T00:09:17;92995.14;;;-4.15;72.33
64211;BME280;50528;48.514;14.394;2023-01-20T00:09:51;92998.46;;;-4.14;72.22
64211;BME280;50528;48.514;14.394;2023-01-20T00:10:24;92994.11;;;-4.15;72.22
64211;BME280;50528;48.514;14.394;2023-01-20T00:11:05;92997.64;;;-4.14;72.28
64211;BME280;50528;48.514;14.394;2023-01-20T00:11:39;92994.70;;;-4.15;72.11
64211;BME280;50528;48.514;14.394;2023-01-20T00:12:12;92994.02;;;-4.15;72.10
64211;BME280;50528;48.514;14.394;2023-01-20T00:12:48;92995.23;;;-4.16;72.09
64211;BME280;50528;48.514;14.394;2023-01-20T00:13:22;92996.70;;;-4.16;72.05
64211;BME280;50528;48.514;14.394;2023-01-20T00:13:58;92995.19;;;-4.17;72.04
64211;BME280;50528;48.514;14.394;2023-01-20T00:14:32;92995.56;;;-4.17;72.07
64211;BME280;50528;48.514;14.394;2023-01-20T00:15:06;92994.45;;;-4.18;72.04
64211;BME280;50528;48.514;14.394;2023-01-20T00:15:41;92994.78;;;-4.17;71.96
64211;BME280;50528;48.514;14.394;2023-01-20T00:16:15;92988.39;;;-4.20;71.90
64211;BME280;50528;48.514;14.394;2023-01-20T00:16:48;92992.67;;;-4.18;71.76
64211;BME280;50528;48.514;14.394;2023-01-20T00:17:22;92994.09;;;-4.20;71.69
64211;BME280;50528;48.514;14.394;2023-01-20T00:17:56;92993.46;;;-4.22;71.66
64211;BME280;50528;48.514;14.394;2023-01-20T00:18:30;92990.13;;;-4.23;71.79
64211;BME280;50528;48.514;14.394;2023-01-20T00:19:04;92987.77;;;-4.25;71.76
64211;BME280;50528;48.514;14.394;2023-01-20T00:19:38;92988.64;;;-4.25;71.79
64211;BME280;50528;48.514;14.394;2023-01-20T00:20:11;92986.48;;;-4.25;71.75
64211;BME280;50528;48.514;14.394;2023-01-20T00:20:45;92988.02;;;-4.25;71.89
64211;BME280;50528;48.514;14.394;2023-01-20T00:21:19;92983.98;;;-4.26;71.67
64211;BME280;50528;48.514;14.394;2023-01-20T00:21:53;92982.58;;;-4.29;71.67
64211;BME280;50528;48.514;14.394;2023-01-20T00:22:27;92986.98;;;-4.27;71.79
64211;BME280;50528;48.514;14.394;2023-01-20T00:23:00;92984.09;;;-4.27;71.80
64211;BME280;50528;48.514;14.394;2023-01-20T00:23:34;92986.49;;;-4.27;71.73
64211;BME280;50528;48.514;14.394;2023-01-20T00:24:08;92985.73;;;-4.28;71.75
64211;BME280;50528;48.514;14.394;2023-01-20T00:24:42;92990.19;;;-4.28;71.67
64211;BME280;50528;48.514;14.394;2023-01-20T00:25:15;92990.06;;;-4.28;71.64
64211;BME280;50528;48.514;14.394;2023-01-20T00:25:49;92989.50;;;-4.29;71.51
64211;BME280;50528;48.514;14.394;2023-01-20T00:26:24;92992.87;;;-4.32;71.51
64211;BME280;50528;48.514;14.394;2023-01-20T00:26:57;92992.48;;;-4.34;71.57
64211;BME280;50528;48.514;14.394;2023-01-20T00:27:31;92989.02;;;-4.35;71.45
64211;BME280;50528;48.514;14.394;2023-01-20T00:28:05;92991.94;;;-4.37;71.60
64211;BME280;50528;48.514;14.394;2023-01-20T00:28:39;92990.19;;;-4.38;71.47
64211;BME280;50528;48.514;14.394;2023-01-20T00:29:12;92993.69;;;-4.39;71.44
64211;BME280;50528;48.514;14.394;2023-01-20T00:29:46;92992.70;;;-4.40;71.37
64211;BME280;50528;48.514;14.394;2023-01-20T00:30:19;92989.70;;;-4.41;71.49
64211;BME280;50528;48.514;14.394;2023-01-20T00:30:54;92987.42;;;-4.42;71.43
64211;BME280;50528;48.514;14.394;2023-01-20T00:31:29;92989.04;;;-4.42;71.44
64211;BME280;50528;48.514;14.394;2023-01-20T00:32:03;92987.02;;;-4.43;71.42
64211;BME280;50528;48.514;14.394;2023-01-20T00:32:38;92988.55;;;-4.43;71.34
64211;BME280;50528;48.514;14.394;2023-01-20T00:33:16;92987.89;;;-4.45;71.31
64211;BME280;50528;48.514;14.394;2023-01-20T00:33:51;92987.38;;;-4.44;71.42
64211;BME280;50528;48.514;14.394;2023-01-20T00:34:26;92989.79;;;-4.45;71.37
64211;BME280;50528;48.514;14.394;2023-01-20T00:35:05;92986.04;;;-4.46;71.40
64211;BME280;50528;48.514;14.394;2023-01-20T00:35:39;92987.19;;;-4.46;71.44
64211;BME280;50528;48.514;14.394;2023-01-20T00:36:14;92992.16;;;-4.46;71.36
64211;BME280;50528;48.514;14.394;2023-01-20T00:36:48;92989.91;;;-4.46;71.46
64211;BME280;50528;48.514;14.394;2023-01-20T00:37:21;92990.75;;;-4.46;71.52
64211;BME280;50528;48.514;14.394;2023-01-20T00:37:55;92994.66;;;-4.45;71.48
64211;BME280;50528;48.514;14.394;2023-01-20T00:38:28;92991.81;;;-4.46;71.59
64211;BME280;50528;48.514;14.394;2023-01-20T00:39:03;92992.89;;;-4.45;71.55
64211;BME280;50528;48.514;14.394;2023-01-20T00:39:37;92992.10;;;-4.45;71.66
64211;BME280;50528;48.514;14.394;2023-01-20T00:40:11;92994.94;;;-4.45;71.61
64211;BME280;50528;48.514;14.394;2023-01-20T00:40:52;92993.54;;;-4.44;71.61
64211;BME280;50528;48.514;14.394;2023-01-20T00:41:26;92992.06;;;-4.45;71.71
64211;BME280;50528;48.514;14.394;2023-01-20T00:41:59;92993.05;;;-4.45;71.50
64211;BME280;50528;48.514;14.394;2023-01-20T00:42:33;92996.00;;;-4.45;71.77
64211;BME280;50528;48.514;14.394;2023-01-20T00:43:06;92995.55;;;-4.44;71.66
64211;BME280;50528;48.514;14.394;2023-01-20T00:43:40;92998.75;;;-4.44;71.59
64211;BME280;50528;48.514;14.394;2023-01-20T00:44:14;92998.40;;;-4.44;71.70
64211;BME280;50528;48.514;14.394;2023-01-20T00:44:48;92996.15;;;-4.43;71.77
64211;BME280;50528;48.514;14.394;2023-01-20T00:45:21;92997.69;;;-4.43;71.81
64211;BME280;50528;48.514;14.394;2023-01-20T00:45:55;92999.02;;;-4.43;71.66
64211;BME280;50528;48.514;14.394;2023-01-20T00:46:28;92998.70;;;-4.42;71.73
64211;BME280;50528;48.514;14.394;2023-01-20T00:47:02;92994.98;;;-4.42;71.63
64211;BME280;50528;48.514;14.394;2023-01-20T00:47:35;92996.75;;;-4.43;71.79
64211;BME280;50528;48.514;14.394;2023-01-20T00:48:09;92995.64;;;-4.44;71.79
64211;BME280;50528;48.514;14.394;2023-01-20T00:48:42;92996.23;;;-4.43;71.89
64211;BME280;50528;48.514;14.394;2023-01-20T00:49:16;92995.21;;;-4.43;71.82
64211;BME280;50528;48.514;14.394;2023-01-20T00:49:49;92994.89;;;-4.43;71.82
64211;BME280;50528;48.514;14.394;2023-01-20T00:50:23;92995.58;;;-4.41;71.85
64211;BME280;50528;48.514;14.394;2023-01-20T00:50:56;92995.38;;;-4.41;71.73
64211;BME280;50528;48.514;14.394;2023-01-20T00:51:30;92997.19;;;-4.42;71.87
64211;BME280;50528;48.514;14.394;2023-01-20T00:52:04;92992.30;;;-4.43;71.77
64211;BME280;50528;48.514;14.394;2023-01-20T00:52:37;92998.30;;;-4.43;71.93
64211;BME280;50528;48.514;14.394;2023-01-20T00:53:11;92999.08;;;-4.42;71.76
64211;BME280;50528;48.514;14.394;2023-01-20T00:53:44;93001.66;;;-4.42;71.87
64211;BME280;50528;48.514;14.394;2023-01-20T00:54:18;93000.73;;;-4.43;71.82
64211;BME280;50528;48.514;14.394;2023-01-20T00:54:51;93001.34;;;-4.43;71.90
64211;BME280;50528;48.514;14.394;2023-01-20T00:55:25;93002.04;;;-4.43;71.88
64211;BME280;50528;48.514;14.394;2023-01-20T00:55:58;93001.34;;;-4.42;71.81
64211;BME280;50528;48.514;14.394;2023-01-20T00:56:32;93002.27;;;-4.43;71.83
64211;BME280;50528;48.514;14.394;2023-01-20T00:57:06;93002.44;;;-4.43;71.95
64211;BME280;50528;48.514;14.394;2023-01-20T00:57:40;93006.57;;;-4.43;71.86
64211;BME280;50528;48.514;14.394;2023-01-20T00:58:14;93000.74;;;-4.45;71.78
64211;BME280;50528;48.514;14.394;2023-01-20T00:58:51;93003.77;;;-4.43;71.92
64211;BME280;50528;48.514;14.394;2023-01-20T00:59:27;93004.16;;;-4.43;71.78
64211;BME280;50528;48.514;14.394;2023-01-20T01:00:00;93006.37;;;-4.43;71.78
64211;BME280;50528;48.514;14.394;2023-01-20T01:00:34;93005.05;;;-4.44;71.93
64211;BME280;50528;48.514;14.394;2023-01-20T01:01:08;93006.66;;;-4.44;71.67
64211;BME280;50528;48.514;14.394;2023-01-20T01:01:44;93008.39;;;-4.45;71.85
64211;BME280;50528;48.514;14.394;2023-01-20T01:02:18;93006.16;;;-4.46;71.83
64211;BME280;50528;48.514;14.394;2023-01-20T01:02:51;93008.11;;;-4.45;71.77
64211;BME280;50528;48.514;14.394;2023-01-20T01:03:27;93008.57;;;-4.46;71.75
64211;BME280;50528;48.514;14.394;2023-01-20T01:04:02;93012.48;;;-4.46;71.73
64211;BME280;50528;48.514;14.394;2023-01-20T01:04:35;93009.70;;;-4.47;71.79
64211;BME280;50528;48.514;14.394;2023-01-20T01:05:09;93011.32;;;-4.46;71.73
64211;BME280;50528;48.514;14.394;2023-01-20T01:05:44;93011.75;;;-4.47;71.70
64211;BME280;50528;48.514;14.394;2023-01-20T01:06:17;93012.14;;;-4.47;71.76
64211;BME280;50528;48.514;14.394;2023-01-20T01:06:51;93011.08;;;-4.48;71.82
64211;BME280;50528;48.514;14.394;2023-01-20T01:07:25;93010.21;;;-4.48;71.75
64211;BME280;50528;48.514;14.394;2023-01-20T01:07:58;93011.78;;;-4.49;71.85
64211;BME280;50528;48.514;14.394;2023-01-20T01:08:34;93015.21;;;-4.49;71.74
64211;BME280;50528;48.514;14.394;2023-01-20T01:09:08;93012.81;;;-4.48;71.81
64211;BME280;50528;48.514;14.394;2023-01-20T01:09:42;93015.29;;;-4.49;71.90
64211;BME280;50528;48.514;14.394;2023-01-20T01:10:15;93013.42;;;-4.49;71.79
64211;BME280;50528;48.514;14.394;2023-01-20T01:10:49;93014.27;;;-4.49;71.86
64211;BME280;50528;48.514;14.394;2023-01-20T01:11:28;93007.67;;;-4.52;71.87
64211;BME280;50528;48.514;14.394;2023-01-20T01:12:05;93011.45;;;-4.50;71.82
64211;BME280;50528;48.514;14.394;2023-01-20T01:12:40;93008.70;;;-4.51;71.75
64211;BME280;50528;48.514;14.394;2023-01-20T01:13:14;93007.64;;;-4.51;71.74
64211;BME280;50528;48.514;14.394;2023-01-20T01:13:48;93010.20;;;-4.51;71.81
64211;BME280;50528;48.514;14.394;2023-01-20T01:14:21;93009.17;;;-4.51;71.88
64211;BME280;50528;48.514;14.394;2023-01-20T01:14:55;93008.95;;;-4.51;71.96
64211;BME280;50528;48.514;14.394;2023-01-20T01:15:29;93012.58;;;-4.51;72.03
64211;BME280;50528;48.514;14.394;2023-01-20T01:16:03;93014.67;;;-4.50;71.92
64211;BME280;50528;48.514;14.394;2023-01-20T01:16:37;93017.27;;;-4.50;71.82
64211;BME280;50528;48.514;14.394;2023-01-20T01:17:11;93020.35;;;-4.50;71.92
64211;BME280;50528;48.514;14.394;2023-01-20T01:17:44;93022.44;;;-4.50;71.95
64211;BME280;50528;48.514;14.394;2023-01-20T01:18:18;93021.13;;;-4.51;71.91
64211;BME280;50528;48.514;14.394;2023-01-20T01:18:52;93021.96;;;-4.51;71.95
64211;BME280;50528;48.514;14.394;2023-01-20T01:19:27;93022.21;;;-4.50;71.93
64211;BME280;50528;48.514;14.394;2023-01-20T01:20:00;93022.31;;;-4.49;72.03
64211;BME280;50528;48.514;14.394;2023-01-20T01:20:37;93025.09;;;-4.50;71.89
64211;BME280;50528;48.514;14.394;2023-01-20T01:21:14;93025.16;;;-4.50;71.94
64211;BME280;50528;48.514;14.394;2023-01-20T01:21:48;93026.58;;;-4.51;72.03
64211;BME280;50528;48.514;14.394;2023-01-20T01:22:21;93024.75;;;-4.51;72.09
64211;BME280;50528;48.514;14.394;2023-01-20T01:22:55;93022.29;;;-4.52;71.98
64211;BME280;50528;48.514;14.394;2023-01-20T01:23:28;93028.41;;;-4.52;71.92
64211;BME280;50528;48.514;14.394;2023-01-20T01:24:02;93027.08;;;-4.51;72.03
64211;BME280;50528;48.514;14.394;2023-01-20T01:24:37;93027.02;;;-4.52;71.86
64211;BME280;50528;48.514;14.394;2023-01-20T01:25:11;93023.13;;;-4.53;71.90
64211;BME280;50528;48.514;14.394;2023-01-20T01:25:45;93027.94;;;-4.54;71.79
64211;BME280;50528;48.514;14.394;2023-01-20T01:26:18;93028.48;;;-4.54;71.89
64211;BME280;50528;48.514;14.394;2023-01-20T01:26:52;93028.39;;;-4.55;71.80
64211;BME280;50528;48.514;14.394;2023-01-20T01:27:27;93028.41;;;-4.56;71.78
64211;BME280;50528;48.514;14.394;2023-01-20T01:28:00;93029.16;;;-4.56;71.81
64211;BME280;50528;48.514;14.394;2023-01-20T01:28:34;93025.25;;;-4.56;71.91
64211;BME280;50528;48.514;14.394;2023-01-20T01:29:09;93028.20;;;-4.57;71.83
64211;BME280;50528;48.514;14.394;2023-01-20T01:29:43;93031.20;;;-4.56;71.86
64211;BME280;50528;48.514;14.394;2023-01-20T01:30:16;93028.29;;;-4.56;71.86
64211;BME280;50528;48.514;14.394;2023-01-20T01:30:50;93029.55;;;-4.56;71.92
64211;BME280;50528;48.514;14.394;2023-01-20T01:31:27;93028.74;;;-4.57;71.79
64211;BME280;50528;48.514;14.394;2023-01-20T01:32:01;93032.49;;;-4.57;71.75
64211;BME280;50528;48.514;14.394;2023-01-20T01:32:35;93029.84;;;-4.57;71.73
64211;BME280;50528;48.514;14.394;2023-01-20T01:33:20;93030.17;;;-4.59;71.88
64211;BME280;50528;48.514;14.394;2023-01-20T01:33:54;93034.83;;;-4.59;71.94
64211;BME280;50528;48.514;14.394;2023-01-20T01:34:28;93037.47;;;-4.60;71.86
64211;BME280;50528;48.514;14.394;2023-01-20T01:35:02;93040.20;;;-4.58;71.95
64211;BME280;50528;48.514;14.394;2023-01-20T01:35:36;93036.09;;;-4.58;71.93
64211;BME280;50528;48.514;14.394;2023-01-20T01:36:12;93038.71;;;-4.57;71.93
64211;BME280;50528;48.514;14.394;2023-01-20T01:36:46;93039.07;;;-4.57;71.77
64211;BME280;50528;48.514;14.394;2023-01-20T01:37:20;93039.03;;;-4.57;71.90
64211;BME280;50528;48.514;14.394;2023-01-20T01:37:53;93038.80;;;-4.57;71.95
64211;BME280;50528;48.514;14.394;2023-01-20T01:38:27;93040.95;;;-4.58;72.02
64211;BME280;50528;48.514;14.394;2023-01-20T01:39:01;93045.73;;;-4.57;71.97
64211;BME280;50528;48.514;14.394;2023-01-20T01:39:34;93039.12;;;-4.59;71.92
64211;BME280;50528;48.514;14.394;2023-01-20T01:40:10;93043.14;;;-4.57;71.97
64211;BME280;50528;48.514;14.394;2023-01-20T01:40:48;93046.38;;;-4.57;71.94
64211;BME280;50528;48.514;14.394;2023-01-20T01:41:22;93050.00;;;-4.57;72.10
64211;BME280;50528;48.514;14.394;2023-01-20T01:41:56;93047.16;;;-4.59;72.08
64211;BME280;50528;48.514;14.394;2023-01-20T01:42:29;93053.52;;;-4.58;71.94
64211;BME280;50528;48.514;14.394;2023-01-20T01:43:36;93049.91;;;-4.58;72.10
64211;BME280;50528;48.514;14.394;2023-01-20T01:44:11;93053.10;;;-4.63;72.03
64211;BME280;50528;48.514;14.394;2023-01-20T01:45:23;93054.45;;;-4.65;72.22
64211;BME280;50528;48.514;14.394;2023-01-20T01:45:57;93056.48;;;-4.69;72.21
64211;BME280;50528;48.514;14.394;2023-01-20T01:46:32;93058.58;;;-4.69;72.29
64211;BME280;50528;48.514;14.394;2023-01-20T01:47:06;93054.79;;;-4.69;72.33
64211;BME280;50528;48.514;14.394;2023-01-20T01:48:02;93058.41;;;-4.70;72.42
64211;BME280;50528;48.514;14.394;2023-01-20T01:48:43;93064.35;;;-4.73;72.45
64211;BME280;50528;48.514;14.394;2023-01-20T01:49:31;93062.40;;;-4.76;72.49
64211;BME280;50528;48.514;14.394;2023-01-20T01:50:08;93059.64;;;-4.77;72.53
64211;BME280;50528;48.514;14.394;2023-01-20T01:50:50;93060.49;;;-4.78;72.62
64211;BME280;50528;48.514;14.394;2023-01-20T01:51:29;93063.70;;;-4.80;72.61
64211;BME280;50528;48.514;14.394;2023-01-20T01:52:08;93064.82;;;-4.80;72.68
64211;BME280;50528;48.514;14.394;2023-01-20T01:52:44;93067.52;;;-4.80;72.75
64211;BME280;50528;48.514;14.394;2023-01-20T01:53:19;93068.63;;;-4.81;72.84
64211;BME280;50528;48.514;14.394;2023-01-20T01:53:55;93069.42;;;-4.80;72.92
64211;BME280;50528;48.514;14.394;2023-01-20T01:54:34;93068.57;;;-4.80;72.93
64211;BME280;50528;48.514;14.394;2023-01-20T01:55:08;93071.13;;;-4.81;72.91
64211;BME280;50528;48.514;14.394;2023-01-20T01:55:50;93071.29;;;-4.80;73.08
64211;BME280;50528;48.514;14.394;2023-01-20T01:56:27;93073.95;;;-4.80;73.06
64211;BME280;50528;48.514;14.394;2023-01-20T01:57:03;93061.59;;;-4.86;73.03
64211;BME280;50528;48.514;14.394;2023-01-20T01:57:37;93073.02;;;-4.79;72.98
64211;BME280;50528;48.514;14.394;2023-01-20T01:58:14;93072.91;;;-4.78;73.16
64211;BME280;50528;48.514;14.394;2023-01-20T01:58:50;93079.11;;;-4.77;73.08
64211;BME280;50528;48.514;14.394;2023-01-20T01:59:26;93075.06;;;-4.76;73.13
64211;BME280;50528;48.514;14.394;2023-01-20T02:00:01;93077.44;;;-4.76;73.19
64211;BME280;50528;48.514;14.394;2023-01-20T02:00:45;93079.29;;;-4.74;73.05
64211;BME280;50528;48.514;14.394;2023-01-20T02:01:19;93080.88;;;-4.73;73.01
64211;BME280;50528;48.514;14.394;2023-01-20T02:01:53;93078.64;;;-4.73;73.19
64211;BME280;50528;48.514;14.394;2023-01-20T02:02:28;93075.95;;;-4.72;73.02
64211;BME280;50528;48.514;14.394;2023-01-20T02:03:02;93079.69;;;-4.70;73.06
64211;BME280;50528;48.514;14.394;2023-01-20T02:03:46;93080.00;;;-4.70;73.16
64211;BME280;50528;48.514;14.394;2023-01-20T02:04:25;93078.30;;;-4.71;73.07
64211;BME280;50528;48.514;14.394;2023-01-20T02:04:58;93077.84;;;-4.70;73.11
64211;BME280;50528;48.514;14.394;2023-01-20T02:05:33;93077.09;;;-4.73;73.07
64211;BME280;50528;48.514;14.394;2023-01-20T02:06:08;93079.63;;;-4.70;73.08
64211;BME280;50528;48.514;14.394;2023-01-20T02:06:49;93080.27;;;-4.69;73.04
64211;BME280;50528;48.514;14.394;2023-01-20T02:07:23;93083.49;;;-4.69;73.05
64211;BME280;50528;48.514;14.394;2023-01-20T02:07:57;93085.39;;;-4.69;73.01
64211;BME280;50528;48.514;14.394;2023-01-20T02:08:32;93086.10;;;-4.69;73.04
64211;BME280;50528;48.514;14.394;2023-01-20T02:09:06;93087.09;;;-4.69;72.98
64211;BME280;50528;48.514;14.394;2023-01-20T02:09:39;93087.13;;;-4.69;73.11
64211;BME280;50528;48.514;14.394;2023-01-20T02:10:13;93084.20;;;-4.69;73.06
64211;BME280;50528;48.514;14.394;2023-01-20T02:10:47;93085.73;;;-4.69;73.05
64211;BME280;50528;48.514;14.394;2023-01-20T02:11:20;93090.84;;;-4.69;73.12
64211;BME280;50528;48.514;14.394;2023-01-20T02:11:57;93087.14;;;-4.71;72.94
64211;BME280;50528;48.514;14.394;2023-01-20T02:12:32;93089.04;;;-4.68;72.97
64211;BME280;50528;48.514;14.394;2023-01-20T02:13:06;93086.76;;;-4.68;72.96
64211;BME280;50528;48.514;14.394;2023-01-20T02:13:39;93092.10;;;-4.67;72.89
64211;BME280;50528;48.514;14.394;2023-01-20T02:14:26;93090.70;;;-4.66;72.95
64211;BME280;50528;48.514;14.394;2023-01-20T02:15:03;93090.45;;;-4.67;72.96
64211;BME280;50528;48.514;14.394;2023-01-20T02:15:42;93092.17;;;-4.67;72.97
64211;BME280;50528;48.514;14.394;2023-01-20T02:17:29;93097.43;;;-4.68;73.11
64211;BME280;50528;48.514;14.394;2023-01-20T02:18:20;93101.59;;;-4.69;73.15
64211;BME280;50528;48.514;14.394;2023-01-20T02:21:23;93099.21;;;-4.75;73.42
64211;BME280;50528;48.514;14.394;2023-01-20T02:22:48;93100.90;;;-4.79;73.62
64211;BME280;50528;48.514;14.394;2023-01-20T02:29:03;93105.91;;;-4.83;73.83
64211;BME280;50528;48.514;14.394;2023-01-20T02:30:37;93104.93;;;-4.80;73.91
64211;BME280;50528;48.514;14.394;2023-01-20T02:33:09;93097.88;;;-4.85;74.17
64211;BME280;50528;48.514;14.394;2023-01-20T02:35:19;93098.54;;;-4.83;74.60
64211;BME280;50528;48.514;14.394;2023-01-20T02:36:49;93099.64;;;-4.80;74.55
64211;BME280;50528;48.514;14.394;2023-01-20T02:37:33;93100.86;;;-4.79;74.50
64211;BME280;50528;48.514;14.394;2023-01-20T02:38:24;93102.14;;;-4.78;74.67
64211;BME280;50528;48.514;14.394;2023-01-20T02:39:29;93103.20;;;-4.77;74.57
64211;BME280;50528;48.514;14.394;2023-01-20T02:42:36;93101.64;;;-4.81;74.52
64211;BME280;50528;48.514;14.394;2023-01-20T02:43:28;93101.15;;;-4.80;74.54
64211;BME280;50528;48.514;14.394;2023-01-20T02:45:24;93106.03;;;-4.81;74.46
64211;BME280;50528;48.514;14.394;2023-01-20T02:47:56;93105.23;;;-4.98;74.17
64211;BME280;50528;48.514;14.394;2023-01-20T02:50:58;93106.04;;;-4.96;74.19
64211;BME280;50528;48.514;14.394;2023-01-20T02:52:04;93112.91;;;-5.00;74.10
64211;BME280;50528;48.514;14.394;2023-01-20T02:52:38;93108.20;;;-5.00;74.01
64211;BME280;50528;48.514;14.394;2023-01-20T02:53:13;93107.98;;;-5.00;74.05
64211;BME280;50528;48.514;14.394;2023-01-20T02:53:52;93110.25;;;-4.99;74.05
64211;BME280;50528;48.514;14.394;2023-01-20T02:54:30;93108.02;;;-5.00;74.04
64211;BME280;50528;48.514;14.394;2023-01-20T02:55:08;93111.40;;;-4.97;74.04
64211;BME280;50528;48.514;14.394;2023-01-20T02:55:47;93108.03;;;-4.95;73.92
64211;BME280;50528;48.514;14.394;2023-01-20T02:56:24;93109.61;;;-4.95;74.00
64211;BME280;50528;48.514;14.394;2023-01-20T02:57:01;93108.27;;;-4.93;74.03
64211;BME280;50528;48.514;14.394;2023-01-20T02:57:41;93110.56;;;-4.92;73.97
64211;BME280;50528;48.514;14.394;2023-01-20T02:58:24;93095.85;;;-4.98;74.00
64211;BME280;50528;48.514;14.394;2023-01-20T02:59:08;93103.79;;;-4.89;74.05
64211;BME280;50528;48.514;14.394;2023-01-20T02:59:48;93102.31;;;-4.89;73.88
64211;BME280;50528;48.514;14.394;2023-01-20T03:00:30;93105.67;;;-4.87;73.91
64211;BME280;50528;48.514;14.394;2023-01-20T03:01:09;93107.70;;;-4.85;73.98
64211;BME280;50528;48.514;14.394;2023-01-20T03:01:49;93108.27;;;-4.84;74.10
64211;BME280;50528;48.514;14.394;2023-01-20T03:02:27;93106.23;;;-4.83;74.01
64211;BME280;50528;48.514;14.394;2023-01-20T03:03:07;93106.41;;;-4.81;74.04
64211;BME280;50528;48.514;14.394;2023-01-20T03:03:45;93109.39;;;-4.80;74.06
64211;BME280;50528;48.514;14.394;2023-01-20T03:04:25;93103.23;;;-4.79;74.13
64211;BME280;50528;48.514;14.394;2023-01-20T03:05:07;93105.64;;;-4.78;74.10
64211;BME280;50528;48.514;14.394;2023-01-20T03:05:53;93104.98;;;-4.76;74.22
64211;BME280;50528;48.514;14.394;2023-01-20T03:06:31;93108.19;;;-4.74;74.18
64211;BME280;50528;48.514;14.394;2023-01-20T03:07:09;93105.29;;;-4.73;74.22
64211;BME280;50528;48.514;14.394;2023-01-20T03:07:44;93104.48;;;-4.72;74.36
64211;BME280;50528;48.514;14.394;2023-01-20T03:08:22;93101.80;;;-4.69;74.25
64211;BME280;50528;48.514;14.394;2023-01-20T03:09:03;93102.59;;;-4.67;74.25
64211;BME280;50528;48.514;14.394;2023-01-20T03:09:41;93096.71;;;-4.67;74.23
64211;BME280;50528;48.514;14.394;2023-01-20T03:10:19;93100.89;;;-4.64;74.24
64211;BME280;50528;48.514;14.394;2023-01-20T03:10:57;93101.70;;;-4.62;74.23
64211;BME280;50528;48.514;14.394;2023-01-20T03:11:33;93099.88;;;-4.61;74.26
64211;BME280;50528;48.514;14.394;2023-01-20T03:12:56;93101.18;;;-4.58;74.35
64211;BME280;50528;48.514;14.394;2023-01-20T03:13:32;93100.19;;;-4.57;74.23
64211;BME280;50528;48.514;14.394;2023-01-20T03:14:10;93097.75;;;-4.58;74.24
64211;BME280;50528;48.514;14.394;2023-01-20T03:14:44;93100.81;;;-4.59;74.08
64211;BME280;50528;48.514;14.394;2023-01-20T03:15:21;93102.66;;;-4.62;74.00
64211;BME280;50528;48.514;14.394;2023-01-20T03:16:02;93087.48;;;-4.71;74.12
64211;BME280;50528;48.514;14.394;2023-01-20T03:16:37;93098.39;;;-4.65;74.20
64211;BME280;50528;48.514;14.394;2023-01-20T03:17:11;93096.69;;;-4.65;74.19
64211;BME280;50528;48.514;14.394;2023-01-20T03:17:44;93100.15;;;-4.64;74.27
64211;BME280;50528;48.514;14.394;2023-01-20T03:18:18;93098.56;;;-4.62;74.26
64211;BME280;50528;48.514;14.394;2023-01-20T03:18:53;93102.11;;;-4.60;74.25
64211;BME280;50528;48.514;14.394;2023-01-20T03:19:27;93100.38;;;-4.59;74.22
64211;BME280;50528;48.514;14.394;2023-01-20T03:20:00;93098.81;;;-4.58;74.09
64211;BME280;50528;48.514;14.394;2023-01-20T03:20:35;93098.66;;;-4.57;74.27
64211;BME280;50528;48.514;14.394;2023-01-20T03:21:09;93105.46;;;-4.55;74.14
64211;BME280;50528;48.514;14.394;2023-01-20T03:21:43;93104.21;;;-4.53;74.17
64211;BME280;50528;48.514;14.394;2023-01-20T03:22:17;93102.70;;;-4.51;74.13
64211;BME280;50528;48.514;14.394;2023-01-20T03:22:50;93102.05;;;-4.50;74.16
64211;BME280;50528;48.514;14.394;2023-01-20T03:23:29;93105.35;;;-4.49;74.13
64211;BME280;50528;48.514;14.394;2023-01-20T03:24:06;93106.48;;;-4.47;74.08
64211;BME280;50528;48.514;14.394;2023-01-20T03:24:41;93102.29;;;-4.48;73.92
64211;BME280;50528;48.514;14.394;2023-01-20T03:25:18;93107.23;;;-4.45;73.96
64211;BME280;50528;48.514;14.394;2023-01-20T03:25:52;93105.69;;;-4.45;73.93
64211;BME280;50528;48.514;14.394;2023-01-20T03:26:27;93104.69;;;-4.43;73.91
64211;BME280;50528;48.514;14.394;2023-01-20T03:27:00;93102.85;;;-4.42;74.00
64211;BME280;50528;48.514;14.394;2023-01-20T03:27:34;93104.79;;;-4.41;73.97
64211;BME280;50528;48.514;14.394;2023-01-20T03:28:07;93103.07;;;-4.40;73.98
64211;BME280;50528;48.514;14.394;2023-01-20T03:28:41;93101.75;;;-4.39;73.90
64211;BME280;50528;48.514;14.394;2023-01-20T03:29:16;93103.13;;;-4.37;74.02
64211;BME280;50528;48.514;14.394;2023-01-20T03:29:50;93100.45;;;-4.36;74.05
64211;BME280;50528;48.514;14.394;2023-01-20T03:30:23;93101.58;;;-4.34;73.96
64211;BME280;50528;48.514;14.394;2023-01-20T03:30:58;93103.52;;;-4.34;73.86
64211;BME280;50528;48.514;14.394;2023-01-20T03:31:43;93102.94;;;-4.31;73.86
64211;BME280;50528;48.514;14.394;2023-01-20T03:32:20;93104.23;;;-4.30;73.86
64211;BME280;50528;48.514;14.394;2023-01-20T03:32:59;93103.66;;;-4.30;73.95